Terminal Aerodrome Forecast
Issued by NWS Grand Rapids, MI

Current Version | Previous Version | Text Only | Print | Product List | Glossary On
Versions: 1 2 3 4 5 6 7 8 9 10 11 12 13 14 15 16 17 18
000
FTUS43 KGRR 272352
TAFGRR
TAF
KGRR 272352Z 2800/2824 14008KT P6SM OVC100
      TEMPO 2800/2803 4SM -SHRA BR OVC040
     FM280300 16009KT P6SM VCSH BKN080
     FM281300 19012G21KT P6SM VCSH BKN060
     FM281800 20012G22KT P6SM VCTS BKN050CB=

USA.gov is the U.S. government's official web portal to all federal, state and local government web resources and services.